createdAt,value
2023-01-18T00:01:04.808Z,7.20
2023-01-18T00:04:09.456Z,7.80
2023-01-18T00:07:12.602Z,7.63
2023-01-18T00:10:16.332Z,8.20
2023-01-18T00:13:19.455Z,8.53
2023-01-18T00:16:26.134Z,7.40
2023-01-18T00:19:30.822Z,8.50
2023-01-18T00:22:34.003Z,7.20
2023-01-18T00:25:37.816Z,7.63
2023-01-18T00:28:42.054Z,8.13
2023-01-18T00:31:45.635Z,7.90
2023-01-18T00:34:50.606Z,7.53
2023-01-18T00:37:55.102Z,7.60
2023-01-18T00:40:58.885Z,8.13
2023-01-18T00:44:01.445Z,8.10
2023-01-18T00:47:04.680Z,8.60
2023-01-18T00:50:10.797Z,6.70
2023-01-18T00:53:14.010Z,8.00
2023-01-18T00:56:19.167Z,8.00
2023-01-18T00:59:22.372Z,8.50
2023-01-18T01:02:25.688Z,7.97
2023-01-18T01:05:47.625Z,9.40
2023-01-18T01:08:50.791Z,10.97
2023-01-18T01:12:12.483Z,12.90
2023-01-18T01:15:33.143Z,14.60
2023-01-18T01:18:53.555Z,13.10
2023-01-18T01:22:15.214Z,15.47
2023-01-18T01:25:35.552Z,16.73
2023-01-18T01:28:40.099Z,18.07
2023-01-18T01:31:43.481Z,19.27
2023-01-18T01:34:46.683Z,21.00
2023-01-18T01:37:51.207Z,20.03
2023-01-18T01:40:58.728Z,21.40
2023-01-18T01:44:04.516Z,19.67
2023-01-18T01:47:12.913Z,19.83
2023-01-18T01:50:20.910Z,18.43
2023-01-18T01:53:25.691Z,20.70
2023-01-18T01:56:29.445Z,17.50
2023-01-18T01:59:32.925Z,17.27
2023-01-18T02:02:37.278Z,17.50
2023-01-18T02:05:44.578Z,17.20
2023-01-18T02:08:49.098Z,17.03
2023-01-18T02:11:53.948Z,18.17
2023-01-18T02:14:57.951Z,17.53
2023-01-18T02:18:23.490Z,17.80
2023-01-18T02:21:32.526Z,15.47
2023-01-18T02:25:19.148Z,15.70
2023-01-18T02:28:32.838Z,15.50
2023-01-18T02:31:44.395Z,17.03
2023-01-18T02:34:51.177Z,17.67
2023-01-18T02:38:03.277Z,19.80
2023-01-18T02:41:14.748Z,15.47
2023-01-18T02:44:48.017Z,16.60
2023-01-18T02:47:52.060Z,14.10
2023-01-18T02:50:55.243Z,14.53
2023-01-18T02:53:59.143Z,12.97
2023-01-18T02:57:07.080Z,12.73
2023-01-18T03:00:17.556Z,11.77
2023-01-18T03:03:22.389Z,11.33
2023-01-18T03:06:28.532Z,9.97
2023-01-18T03:09:32.994Z,9.87
2023-01-18T03:12:47.097Z,10.30
2023-01-18T03:15:55.759Z,10.53
2023-01-18T03:19:05.894Z,9.47
2023-01-18T03:22:09.084Z,10.20
2023-01-18T03:25:15.233Z,10.27
2023-01-18T03:28:41.310Z,10.50
2023-01-18T03:32:07.018Z,10.83
2023-01-18T03:35:15.110Z,10.77
2023-01-18T03:38:18.952Z,10.23
2023-01-18T03:41:25.968Z,10.37
2023-01-18T03:44:35.342Z,12.20
2023-01-18T03:47:40.384Z,15.80
2023-01-18T03:50:49.663Z,17.77
2023-01-18T03:54:01.942Z,17.43
2023-01-18T03:57:10.098Z,15.90
2023-01-18T04:00:15.257Z,18.87
2023-01-18T04:03:19.863Z,18.13
2023-01-18T04:06:23.549Z,17.27
2023-01-18T04:09:27.282Z,19.27
2023-01-18T04:12:31.576Z,17.70
2023-01-18T04:15:34.732Z,17.97
2023-01-18T04:18:39.266Z,17.27
2023-01-18T04:21:42.481Z,18.03
2023-01-18T04:24:46.027Z,17.93
2023-01-18T04:27:49.217Z,17.47
2023-01-18T04:30:53.191Z,19.23
2023-01-18T04:33:57.721Z,19.10
2023-01-18T04:37:00.968Z,19.27
2023-01-18T04:40:04.516Z,18.43
2023-01-18T04:43:07.708Z,18.50
2023-01-18T04:46:10.861Z,23.83
2023-01-18T04:49:17.489Z,19.37
2023-01-18T04:52:20.656Z,18.67
2023-01-18T04:55:23.818Z,17.47
2023-01-18T04:58:26.993Z,17.63
2023-01-18T05:01:30.695Z,18.90
2023-01-18T05:04:35.284Z,19.03
2023-01-18T05:07:38.431Z,18.57
2023-01-18T05:10:41.572Z,18.97
2023-01-18T05:13:45.622Z,20.70
2023-01-18T05:16:48.777Z,21.73
2023-01-18T05:19:54.355Z,17.37
2023-01-18T05:22:57.740Z,17.43
2023-01-18T05:26:01.199Z,20.50
2023-01-18T05:29:04.391Z,22.07
2023-01-18T05:32:07.553Z,23.40
2023-01-18T05:35:12.297Z,20.33
2023-01-18T05:38:15.506Z,19.90
2023-01-18T05:41:18.672Z,19.87
2023-01-18T05:44:21.837Z,18.67
2023-01-18T05:47:25.014Z,18.50
2023-01-18T05:50:29.537Z,19.60
2023-01-18T05:53:32.691Z,18.80
2023-01-18T05:56:35.972Z,21.03
2023-01-18T05:59:39.156Z,20.37
2023-01-18T06:02:42.309Z,20.50
2023-01-18T06:05:48.041Z,20.20
2023-01-18T06:08:51.220Z,19.90
2023-01-18T06:11:54.385Z,19.27
2023-01-18T06:14:57.627Z,20.00
2023-01-18T06:18:00.773Z,21.60
2023-01-18T06:21:05.510Z,21.53
2023-01-18T06:24:09.054Z,20.27
2023-01-18T06:27:12.292Z,20.10
2023-01-18T06:30:16.080Z,19.37
2023-01-18T06:33:19.294Z,19.60
2023-01-18T06:36:23.828Z,18.97
2023-01-18T06:39:27.307Z,18.77
2023-01-18T06:42:30.485Z,18.30
2023-01-18T06:45:34.065Z,18.43
2023-01-18T06:48:37.288Z,19.90
2023-01-18T06:51:42.409Z,19.00
2023-01-18T06:54:45.922Z,19.30
2023-01-18T06:57:49.077Z,16.70
2023-01-18T07:00:52.329Z,16.70
2023-01-18T07:03:55.736Z,16.27
2023-01-18T07:07:00.609Z,17.50
2023-01-18T07:10:03.834Z,18.67
2023-01-18T07:13:06.999Z,19.67
2023-01-18T07:16:18.054Z,19.73
2023-01-18T07:19:21.469Z,18.90
2023-01-18T07:22:26.071Z,18.80
2023-01-18T07:25:30.378Z,18.10
2023-01-18T07:28:34.779Z,19.30
2023-01-18T07:31:38.315Z,16.83
2023-01-18T07:34:41.501Z,16.97
2023-01-18T07:37:49.599Z,15.83
2023-01-18T07:40:58.411Z,17.20
2023-01-18T07:44:03.725Z,18.73
2023-01-18T07:47:07.956Z,20.03
2023-01-18T07:50:14.128Z,21.80
2023-01-18T07:53:19.081Z,16.80
2023-01-18T07:56:25.208Z,16.03
2023-01-18T07:59:31.004Z,12.70
2023-01-18T08:02:35.292Z,14.60
2023-01-18T08:05:38.586Z,14.40
2023-01-18T08:08:43.132Z,12.90
2023-01-18T08:11:46.344Z,14.83
2023-01-18T08:14:49.494Z,14.80
2023-01-18T08:17:55.359Z,14.97
2023-01-18T08:20:59.007Z,14.30
2023-01-18T08:24:03.598Z,13.20
2023-01-18T08:27:06.813Z,15.20
2023-01-18T08:30:11.408Z,14.20
2023-01-18T08:33:15.103Z,13.10
2023-01-18T08:36:20.963Z,13.50
2023-01-18T08:39:25.640Z,11.40
2023-01-18T08:42:28.949Z,13.00
2023-01-18T08:45:32.749Z,12.73
2023-01-18T08:48:36.077Z,12.63
2023-01-18T08:51:39.293Z,13.07
2023-01-18T08:54:43.906Z,12.90
2023-01-18T08:57:47.083Z,12.83
2023-01-18T09:00:51.186Z,13.07
2023-01-18T09:03:55.280Z,10.20
2023-01-18T09:06:58.453Z,11.80
2023-01-18T09:10:03.039Z,11.70
2023-01-18T09:13:06.810Z,12.10
2023-01-18T09:16:11.726Z,11.97
2023-01-18T09:19:15.686Z,10.90
2023-01-18T09:22:18.852Z,11.40
2023-01-18T09:25:23.446Z,12.30
2023-01-18T09:28:26.759Z,11.70
2023-01-18T09:31:30.832Z,13.20
2023-01-18T09:34:34.080Z,11.63
2023-01-18T09:37:37.582Z,11.40
2023-01-18T09:40:46.181Z,11.30
2023-01-18T09:43:51.441Z,10.90
2023-01-18T09:46:58.572Z,9.20
2023-01-18T09:50:10.980Z,9.50
2023-01-18T09:53:30.763Z,9.77
2023-01-18T09:56:43.368Z,10.50
2023-01-18T09:59:53.974Z,9.80
2023-01-18T10:03:01.913Z,10.10
2023-01-18T10:06:10.940Z,10.67
2023-01-18T10:09:19.301Z,9.17
2023-01-18T10:12:31.707Z,9.40
2023-01-18T10:15:37.770Z,8.97
2023-01-18T10:18:45.814Z,9.30
2023-01-18T10:21:56.320Z,9.93
2023-01-18T10:25:04.885Z,9.93
2023-01-18T10:28:27.530Z,9.60
2023-01-18T10:31:41.239Z,10.10
2023-01-18T10:34:49.177Z,9.80
2023-01-18T10:37:53.411Z,9.70
2023-01-18T10:40:58.979Z,9.30
2023-01-18T10:44:03.508Z,8.63
2023-01-18T10:47:06.707Z,10.60
2023-01-18T10:50:15.136Z,10.67
2023-01-18T10:53:22.942Z,13.50
2023-01-18T10:56:28.186Z,8.90
2023-01-18T10:59:38.128Z,8.07
2023-01-18T11:02:43.903Z,8.90
2023-01-18T11:05:47.596Z,7.87
2023-01-18T11:08:51.665Z,9.20
2023-01-18T11:12:30.709Z,9.73
2023-01-18T11:15:35.353Z,8.90
2023-01-18T11:18:38.508Z,9.17
2023-01-18T11:21:48.566Z,8.90
2023-01-18T11:24:54.373Z,9.40
2023-01-18T11:28:03.021Z,8.20
2023-01-18T11:31:13.803Z,7.73
2023-01-18T11:34:27.953Z,7.53
2023-01-18T11:37:34.494Z,7.60
2023-01-18T11:40:38.011Z,7.40
2023-01-18T11:43:47.063Z,8.53
2023-01-18T11:46:54.803Z,8.70
2023-01-18T11:50:21.070Z,8.40
2023-01-18T11:53:36.166Z,6.70
2023-01-18T11:56:43.877Z,7.73
2023-01-18T11:59:49.228Z,7.70
2023-01-18T12:03:10.441Z,7.43
2023-01-18T12:06:22.552Z,6.60
2023-01-18T12:09:38.402Z,6.50
2023-01-18T12:12:59.760Z,6.80
2023-01-18T12:16:12.542Z,6.30
2023-01-18T12:19:49.120Z,7.10
2023-01-18T12:23:08.676Z,9.93
2023-01-18T12:26:28.226Z,6.23
2023-01-18T12:29:59.916Z,5.80
2023-01-18T12:33:17.407Z,6.20
2023-01-18T12:37:01.784Z,5.87
2023-01-18T12:40:24.700Z,5.93
2023-01-18T12:43:42.234Z,7.13
2023-01-18T12:46:52.155Z,6.70
2023-01-18T12:49:59.954Z,6.20
2023-01-18T12:53:11.585Z,6.97
2023-01-18T12:56:18.167Z,6.10
2023-01-18T12:59:25.401Z,5.17
2023-01-18T13:02:34.407Z,5.60
2023-01-18T13:05:50.968Z,5.93
2023-01-18T13:09:00.905Z,6.13
2023-01-18T13:12:05.909Z,4.57
2023-01-18T13:15:22.236Z,5.90
2023-01-18T13:18:31.628Z,6.23
2023-01-18T13:21:49.548Z,5.43
2023-01-18T13:25:10.279Z,5.77
2023-01-18T13:28:19.651Z,5.23
2023-01-18T13:31:31.774Z,5.53
2023-01-18T13:34:47.623Z,6.77
2023-01-18T13:37:55.907Z,8.17
2023-01-18T13:41:03.918Z,9.53
2023-01-18T13:44:26.896Z,11.60
2023-01-18T13:47:52.235Z,11.80
2023-01-18T13:50:55.432Z,12.43
2023-01-18T13:53:58.597Z,12.50
2023-01-18T13:57:17.007Z,12.30
2023-01-18T14:00:25.643Z,15.50
2023-01-18T14:03:31.676Z,13.60
2023-01-18T14:06:37.205Z,14.57
2023-01-18T14:09:43.693Z,14.10
2023-01-18T14:12:49.743Z,13.77
2023-01-18T14:15:54.503Z,14.07
2023-01-18T14:19:02.638Z,14.20
2023-01-18T14:22:22.659Z,13.17
2023-01-18T14:25:54.137Z,13.80
2023-01-18T14:29:02.086Z,11.80
2023-01-18T14:32:10.008Z,15.10
2023-01-18T14:35:25.752Z,13.67
2023-01-18T14:38:29.928Z,13.60
2023-01-18T14:41:33.374Z,13.97
2023-01-18T14:44:57.453Z,11.93
2023-01-18T14:48:03.624Z,13.50
2023-01-18T14:51:07.296Z,15.27
2023-01-18T14:54:17.899Z,37.33
2023-01-18T14:57:22.676Z,22.03
2023-01-18T15:00:28.008Z,25.33
2023-01-18T15:03:33.115Z,18.20
2023-01-18T15:06:41.107Z,23.80
2023-01-18T15:09:45.644Z,23.70
2023-01-18T15:12:51.804Z,18.70
2023-01-18T15:16:01.471Z,19.63
2023-01-18T15:19:05.295Z,16.77
2023-01-18T15:22:11.976Z,14.70
2023-01-18T15:25:20.655Z,17.47
2023-01-18T15:28:25.491Z,17.40
2023-01-18T15:31:30.671Z,13.30
2023-01-18T15:34:37.429Z,17.50
2023-01-18T15:37:40.624Z,15.53
2023-01-18T15:40:55.420Z,20.40
2023-01-18T15:43:58.697Z,20.53
2023-01-18T15:47:03.904Z,13.70
2023-01-18T15:50:19.527Z,14.23
2023-01-18T15:53:29.011Z,14.20
2023-01-18T15:56:33.348Z,14.70
2023-01-18T15:59:36.597Z,15.30
2023-01-18T16:02:53.463Z,16.67
2023-01-18T16:06:13.433Z,15.50
2023-01-18T16:09:23.174Z,15.77
2023-01-18T16:12:34.414Z,14.07
2023-01-18T16:15:37.977Z,19.37
2023-01-18T16:18:45.055Z,16.83
2023-01-18T16:21:51.048Z,17.00
2023-01-18T16:24:57.725Z,17.07
2023-01-18T16:28:02.753Z,16.47
2023-01-18T16:31:06.415Z,18.00
2023-01-18T16:34:24.423Z,14.80
2023-01-18T16:37:28.702Z,15.20
2023-01-18T16:40:32.288Z,17.87
2023-01-18T16:43:37.647Z,18.03
2023-01-18T16:46:41.254Z,21.93
2023-01-18T16:49:46.659Z,25.03
2023-01-18T16:52:50.237Z,25.77
2023-01-18T16:55:54.897Z,21.33
2023-01-18T16:58:58.448Z,18.50
2023-01-18T17:02:02.501Z,16.87
2023-01-18T17:05:08.683Z,19.37
2023-01-18T17:08:14.687Z,17.80
2023-01-18T17:11:18.208Z,19.53
2023-01-18T17:14:22.744Z,17.50
2023-01-18T17:17:26.465Z,16.13
2023-01-18T17:20:32.129Z,16.30
2023-01-18T17:23:35.950Z,16.50
2023-01-18T17:26:40.963Z,16.30
2023-01-18T17:29:44.803Z,18.40
2023-01-18T17:32:49.222Z,17.20
2023-01-18T17:35:55.647Z,15.40
2023-01-18T17:38:58.961Z,16.57
2023-01-18T17:42:03.462Z,15.57
2023-01-18T17:45:10.008Z,18.07
2023-01-18T17:48:13.963Z,17.47
2023-01-18T17:51:18.712Z,17.97
2023-01-18T17:54:23.173Z,16.80
2023-01-18T17:57:28.892Z,15.07
2023-01-18T18:00:33.347Z,17.03
2023-01-18T18:03:38.716Z,17.63
2023-01-18T18:06:53.716Z,18.43
2023-01-18T18:10:08.500Z,17.07
2023-01-18T18:13:12.135Z,18.10
2023-01-18T18:16:18.827Z,19.17
2023-01-18T18:19:23.742Z,17.80
2023-01-18T18:22:32.267Z,10.07
2023-01-18T18:25:36.368Z,9.90
2023-01-18T18:28:40.250Z,11.17
2023-01-18T18:31:46.017Z,10.17
2023-01-18T18:34:50.617Z,10.60
2023-01-18T18:37:57.346Z,8.90
2023-01-18T18:41:06.785Z,9.70
2023-01-18T18:44:11.349Z,11.77
2023-01-18T18:47:16.221Z,10.53
2023-01-18T18:50:21.471Z,10.93
2023-01-18T18:53:37.524Z,10.30
2023-01-18T18:56:43.405Z,10.00
2023-01-18T18:59:48.089Z,11.63
2023-01-18T19:02:52.285Z,13.37
2023-01-18T19:05:56.722Z,13.33
2023-01-18T19:09:03.043Z,15.30
2023-01-18T19:12:09.264Z,13.97
2023-01-18T19:15:13.578Z,19.37
2023-01-18T19:18:19.714Z,18.80
2023-01-18T19:21:25.107Z,22.90
2023-01-18T19:24:34.580Z,21.67
2023-01-18T19:27:38.802Z,22.33
2023-01-18T19:30:44.143Z,19.13
2023-01-18T19:33:48.298Z,17.50
2023-01-18T19:36:52.762Z,17.80
2023-01-18T19:39:58.732Z,25.00
2023-01-18T19:43:03.032Z,17.77
2023-01-18T19:46:10.137Z,14.80
2023-01-18T19:49:15.968Z,15.73
2023-01-18T19:52:20.773Z,14.80
2023-01-18T19:55:26.502Z,14.90
2023-01-18T19:58:31.019Z,15.23
2023-01-18T20:01:37.350Z,13.30
2023-01-18T20:04:42.701Z,12.80
2023-01-18T20:07:48.540Z,12.57
2023-01-18T20:10:55.527Z,14.10
2023-01-18T20:14:01.760Z,12.13
2023-01-18T20:17:07.270Z,15.87
2023-01-18T20:20:16.217Z,11.07
2023-01-18T20:23:25.532Z,10.63
2023-01-18T20:26:36.910Z,10.27
2023-01-18T20:29:43.475Z,10.07
2023-01-18T20:32:48.381Z,9.60
2023-01-18T20:35:55.520Z,9.80
2023-01-18T20:39:00.073Z,8.90
2023-01-18T20:42:05.868Z,9.00
2023-01-18T20:45:10.429Z,9.63
2023-01-18T20:48:15.501Z,9.10
2023-01-18T20:51:19.782Z,11.50
2023-01-18T20:54:24.036Z,10.90
2023-01-18T20:57:33.339Z,9.70
2023-01-18T21:00:37.436Z,10.23
2023-01-18T21:03:42.122Z,9.23
2023-01-18T21:06:46.628Z,8.80
2023-01-18T21:09:50.593Z,9.50
2023-01-18T21:12:55.615Z,8.27
2023-01-18T21:16:01.064Z,9.77
2023-01-18T21:19:05.094Z,7.50
2023-01-18T21:22:08.374Z,7.50
2023-01-18T21:25:11.943Z,8.20
2023-01-18T21:28:16.732Z,7.60
2023-01-18T21:31:20.055Z,7.83
2023-01-18T21:34:23.220Z,7.70
2023-01-18T21:37:27.403Z,6.37
2023-01-18T21:40:30.550Z,7.10
2023-01-18T21:43:52.546Z,7.73
2023-01-18T21:46:55.744Z,7.50
2023-01-18T21:50:24.607Z,6.90
2023-01-18T21:53:45.137Z,6.93
2023-01-18T21:56:48.394Z,7.90
2023-01-18T21:59:53.090Z,7.13
2023-01-18T22:02:56.311Z,5.10
2023-01-18T22:06:02.312Z,4.40
2023-01-18T22:09:06.408Z,4.40
2023-01-18T22:12:09.872Z,3.73
2023-01-18T22:15:15.458Z,3.90
2023-01-18T22:18:18.660Z,3.70
2023-01-18T22:21:23.311Z,3.37
2023-01-18T22:24:26.466Z,4.20
2023-01-18T22:27:29.717Z,2.90
2023-01-18T22:30:34.300Z,3.17
2023-01-18T22:33:37.427Z,3.57
2023-01-18T22:36:40.600Z,4.27
2023-01-18T22:39:43.737Z,4.40
2023-01-18T22:42:46.901Z,5.10
2023-01-18T22:45:57.291Z,5.07
2023-01-18T22:49:00.611Z,3.80
2023-01-18T22:52:04.334Z,4.60
2023-01-18T22:55:09.316Z,5.17
2023-01-18T22:58:12.448Z,4.30
2023-01-18T23:01:19.146Z,5.30
2023-01-18T23:04:24.311Z,4.63
2023-01-18T23:07:27.542Z,4.90
2023-01-18T23:10:30.711Z,4.80
2023-01-18T23:13:34.075Z,3.90
2023-01-18T23:16:56.730Z,4.20
2023-01-18T23:19:59.861Z,4.47
2023-01-18T23:23:03.877Z,3.20
2023-01-18T23:26:07.083Z,3.27
2023-01-18T23:29:10.729Z,3.37
2023-01-18T23:32:15.244Z,3.30
2023-01-18T23:35:18.497Z,3.00
2023-01-18T23:38:21.664Z,2.10
2023-01-18T23:41:42.357Z,2.50
2023-01-18T23:45:02.628Z,2.30
2023-01-18T23:48:30.810Z,2.67
2023-01-18T23:51:51.086Z,2.60
2023-01-18T23:54:54.258Z,2.43
2023-01-18T23:57:57.673Z,3.10
